sensor_id;sensor_type;location;lat;lon;timestamp;pressure;altitude;pressure_sealevel;temperature;humidity
11212;BME280;5663;50.864;12.096;2023-02-18T00:01:38;99750.38;;;12.45;72.55
11212;BME280;5663;50.864;12.096;2023-02-18T00:04:06;99737.53;;;12.40;73.33
11212;BME280;5663;50.864;12.096;2023-02-18T00:06:35;99740.22;;;12.39;73.34
11212;BME280;5663;50.864;12.096;2023-02-18T00:09:06;99743.94;;;12.35;73.52
11212;BME280;5663;50.864;12.096;2023-02-18T00:11:36;99739.63;;;12.33;74.19
11212;BME280;5663;50.864;12.096;2023-02-18T00:14:10;99724.78;;;12.18;74.31
11212;BME280;5663;50.864;12.096;2023-02-18T00:16:38;99746.09;;;12.26;74.48
11212;BME280;5663;50.864;12.096;2023-02-18T00:19:07;99739.34;;;12.22;74.64
11212;BME280;5663;50.864;12.096;2023-02-18T00:21:37;99616.44;;;11.45;74.75
11212;BME280;5663;50.864;12.096;2023-02-18T00:24:06;99746.34;;;12.22;75.09
11212;BME280;5663;50.864;12.096;2023-02-18T00:26:34;99743.88;;;12.19;75.30
11212;BME280;5663;50.864;12.096;2023-02-18T00:29:03;99743.97;;;12.17;75.32
11212;BME280;5663;50.864;12.096;2023-02-18T00:31:36;99732.91;;;12.12;75.70
11212;BME280;5663;50.864;12.096;2023-02-18T00:34:07;99738.97;;;12.13;75.69
11212;BME280;5663;50.864;12.096;2023-02-18T00:36:36;99728.72;;;12.10;76.14
11212;BME280;5663;50.864;12.096;2023-02-18T00:39:07;99734.91;;;12.07;76.04
11212;BME280;5663;50.864;12.096;2023-02-18T00:41:35;99736.59;;;12.08;75.93
11212;BME280;5663;50.864;12.096;2023-02-18T00:44:04;99736.59;;;12.08;76.15
11212;BME280;5663;50.864;12.096;2023-02-18T00:46:32;99740.13;;;12.07;76.28
11212;BME280;5663;50.864;12.096;2023-02-18T00:49:02;99740.13;;;12.07;76.22
11212;BME280;5663;50.864;12.096;2023-02-18T00:51:31;99736.78;;;12.05;76.41
11212;BME280;5663;50.864;12.096;2023-02-18T00:53:59;99731.56;;;12.05;76.39
11212;BME280;5663;50.864;12.096;2023-02-18T00:56:27;99685.19;;;11.77;76.20
11212;BME280;5663;50.864;12.096;2023-02-18T00:58:54;99730.94;;;12.00;76.28
11212;BME280;5663;50.864;12.096;2023-02-18T01:01:22;99740.38;;;12.02;76.65
11212;BME280;5663;50.864;12.096;2023-02-18T01:03:51;99735.25;;;12.01;76.72
11212;BME280;5663;50.864;12.096;2023-02-18T01:06:23;99735.25;;;12.01;76.87
11212;BME280;5663;50.864;12.096;2023-02-18T01:08:51;99747.34;;;12.02;76.63
11212;BME280;5663;50.864;12.096;2023-02-18T01:11:19;99710.22;;;11.79;76.70
11212;BME280;5663;50.864;12.096;2023-02-18T01:13:48;99743.97;;;12.00;77.04
11212;BME280;5663;50.864;12.096;2023-02-18T01:16:15;99738.75;;;12.00;77.14
11212;BME280;5663;50.864;12.096;2023-02-18T01:18:44;99736.28;;;11.97;76.96
11212;BME280;5663;50.864;12.096;2023-02-18T01:21:12;99742.28;;;11.99;76.89
11212;BME280;5663;50.864;12.096;2023-02-18T01:23:42;99738.91;;;11.97;76.88
11212;BME280;5663;50.864;12.096;2023-02-18T01:26:10;99730.47;;;11.92;77.04
11212;BME280;5663;50.864;12.096;2023-02-18T01:28:41;99728.56;;;11.95;76.91
11212;BME280;5663;50.864;12.096;2023-02-18T01:31:10;99732.94;;;11.95;76.88
11212;BME280;5663;50.864;12.096;2023-02-18T01:33:39;99703.41;;;11.77;77.09
11212;BME280;5663;50.864;12.096;2023-02-18T01:36:10;99730.47;;;11.92;76.97
11212;BME280;5663;50.864;12.096;2023-02-18T01:38:38;99730.63;;;11.89;77.29
11212;BME280;5663;50.864;12.096;2023-02-18T01:41:07;99720.06;;;11.92;77.17
11212;BME280;5663;50.864;12.096;2023-02-18T01:43:37;99723.59;;;11.91;77.11
11212;BME280;5663;50.864;12.096;2023-02-18T01:46:17;99708.09;;;11.88;77.28
11212;BME280;5663;50.864;12.096;2023-02-18T01:48:50;99710.72;;;11.88;77.31
11212;BME280;5663;50.864;12.096;2023-02-18T01:55:07;99699.78;;;11.79;76.99
11212;BME280;5663;50.864;12.096;2023-02-18T01:57:37;99715.44;;;11.79;77.37
11212;BME280;5663;50.864;12.096;2023-02-18T02:00:08;99719.72;;;11.80;77.24
11212;BME280;5663;50.864;12.096;2023-02-18T02:02:39;99719.81;;;11.79;77.40
11212;BME280;5663;50.864;12.096;2023-02-18T02:05:09;99727.72;;;11.77;77.60
11212;BME280;5663;50.864;12.096;2023-02-18T02:07:40;99714.97;;;11.71;77.92
11212;BME280;5663;50.864;12.096;2023-02-18T02:10:11;99728.94;;;11.70;78.26
11212;BME280;5663;50.864;12.096;2023-02-18T02:12:50;99726.63;;;11.64;78.62
11212;BME280;5663;50.864;12.096;2023-02-18T02:15:32;99728.47;;;11.62;78.80
11212;BME280;5663;50.864;12.096;2023-02-18T02:18:17;99739.03;;;11.59;78.61
11212;BME280;5663;50.864;12.096;2023-02-18T02:27:12;99747.00;;;11.56;78.55
11212;BME280;5663;50.864;12.096;2023-02-18T02:30:05;99748.91;;;11.52;78.21
11212;BME280;5663;50.864;12.096;2023-02-18T02:32:55;99756.94;;;11.48;78.44
11212;BME280;5663;50.864;12.096;2023-02-18T02:35:36;99746.66;;;11.45;78.57
11212;BME280;5663;50.864;12.096;2023-02-18T02:38:14;99739.78;;;11.44;78.45
11212;BME280;5663;50.864;12.096;2023-02-18T02:40:51;99749.34;;;11.43;78.29
11212;BME280;5663;50.864;12.096;2023-02-18T02:43:27;99751.19;;;11.41;78.42
11212;BME280;5663;50.864;12.096;2023-02-18T02:46:02;99754.78;;;11.39;78.42
11212;BME280;5663;50.864;12.096;2023-02-18T02:48:37;99750.66;;;11.34;78.37
11212;BME280;5663;50.864;12.096;2023-02-18T02:51:14;99748.88;;;11.35;78.59
11212;BME280;5663;50.864;12.096;2023-02-18T02:53:44;99743.75;;;11.33;78.41
11212;BME280;5663;50.864;12.096;2023-02-18T02:56:17;99738.56;;;11.33;78.59
11212;BME280;5663;50.864;12.096;2023-02-18T02:58:53;99737.63;;;11.34;78.55
11212;BME280;5663;50.864;12.096;2023-02-18T03:01:32;99737.53;;;11.36;78.55
11212;BME280;5663;50.864;12.096;2023-02-18T03:07:23;99726.28;;;11.35;78.53
11212;BME280;5663;50.864;12.096;2023-02-18T03:10:06;99714.19;;;11.34;78.31
11212;BME280;5663;50.864;12.096;2023-02-18T03:12:42;99715.88;;;11.35;78.63
11212;BME280;5663;50.864;12.096;2023-02-18T03:15:20;99716.78;;;11.34;78.47
11212;BME280;5663;50.864;12.096;2023-02-18T03:17:57;99726.28;;;11.35;78.64
11212;BME280;5663;50.864;12.096;2023-02-18T03:20:33;99720.25;;;11.35;78.53
11212;BME280;5663;50.864;12.096;2023-02-18T03:23:07;99719.53;;;11.31;78.51
11212;BME280;5663;50.864;12.096;2023-02-18T03:25:37;99712.78;;;11.27;78.45
11212;BME280;5663;50.864;12.096;2023-02-18T03:28:09;99722.94;;;11.33;78.66
11212;BME280;5663;50.864;12.096;2023-02-18T03:30:43;99698.56;;;11.17;78.48
11212;BME280;5663;50.864;12.096;2023-02-18T03:33:16;99721.22;;;11.32;78.75
11212;BME280;5663;50.864;12.096;2023-02-18T03:35:46;99717.72;;;11.33;78.65
11212;BME280;5663;50.864;12.096;2023-02-18T03:38:20;99716.00;;;11.32;78.69
11212;BME280;5663;50.864;12.096;2023-02-18T03:40:50;99641.97;;;10.84;78.80
11212;BME280;5663;50.864;12.096;2023-02-18T03:43:18;99714.47;;;11.28;78.90
11212;BME280;5663;50.864;12.096;2023-02-18T03:45:47;99716.00;;;11.32;78.74
11212;BME280;5663;50.864;12.096;2023-02-18T03:48:14;99715.25;;;11.30;78.71
11212;BME280;5663;50.864;12.096;2023-02-18T03:50:43;99716.19;;;11.29;78.92
11212;BME280;5663;50.864;12.096;2023-02-18T03:53:12;99721.38;;;11.29;78.75
11212;BME280;5663;50.864;12.096;2023-02-18T03:55:42;99719.69;;;11.28;78.94
11212;BME280;5663;50.864;12.096;2023-02-18T03:58:12;99710.97;;;11.29;78.92
11212;BME280;5663;50.864;12.096;2023-02-18T04:00:40;99714.47;;;11.28;78.80
11212;BME280;5663;50.864;12.096;2023-02-18T04:03:08;99712.78;;;11.27;78.90
11212;BME280;5663;50.864;12.096;2023-02-18T04:05:36;99712.94;;;11.24;79.07
11212;BME280;5663;50.864;12.096;2023-02-18T04:08:04;99711.94;;;11.27;79.01
11212;BME280;5663;50.864;12.096;2023-02-18T04:10:32;99702.53;;;11.24;79.13
11212;BME280;5663;50.864;12.096;2023-02-18T04:13:01;99711.16;;;11.25;78.93
11212;BME280;5663;50.864;12.096;2023-02-18T04:15:30;99711.13;;;11.26;79.09
11212;BME280;5663;50.864;12.096;2023-02-18T04:18:00;99705.91;;;11.26;79.03
11212;BME280;5663;50.864;12.096;2023-02-18T04:20:30;99705.91;;;11.26;79.24
11212;BME280;5663;50.864;12.096;2023-02-18T04:22:58;99692.09;;;11.24;79.12
11212;BME280;5663;50.864;12.096;2023-02-18T04:25:26;99693.81;;;11.25;79.10
11212;BME280;5663;50.864;12.096;2023-02-18T04:27:54;99691.22;;;11.25;79.36
11212;BME280;5663;50.864;12.096;2023-02-18T04:30:23;99693.81;;;11.25;79.29
11212;BME280;5663;50.864;12.096;2023-02-18T04:32:51;99673.13;;;11.22;79.16
11212;BME280;5663;50.864;12.096;2023-02-18T04:35:19;99679.09;;;11.24;79.50
11212;BME280;5663;50.864;12.096;2023-02-18T04:37:48;99675.66;;;11.24;79.56
11212;BME280;5663;50.864;12.096;2023-02-18T04:40:17;99673.97;;;11.23;79.63
11212;BME280;5663;50.864;12.096;2023-02-18T04:42:46;99671.44;;;11.21;79.51
11212;BME280;5663;50.864;12.096;2023-02-18T04:45:14;99662.16;;;11.16;79.49
11212;BME280;5663;50.864;12.096;2023-02-18T04:47:43;99664.75;;;11.16;79.60
11212;BME280;5663;50.864;12.096;2023-02-18T04:50:11;99669.91;;;11.17;79.50
11212;BME280;5663;50.864;12.096;2023-02-18T04:52:40;99663.00;;;11.16;79.42
11212;BME280;5663;50.864;12.096;2023-02-18T04:55:08;99661.31;;;11.15;79.52
11212;BME280;5663;50.864;12.096;2023-02-18T04:57:37;99666.66;;;11.12;79.71
11212;BME280;5663;50.864;12.096;2023-02-18T05:00:06;99649.50;;;11.08;79.62
11212;BME280;5663;50.864;12.096;2023-02-18T05:02:35;99647.84;;;11.07;79.57
11212;BME280;5663;50.864;12.096;2023-02-18T05:05:04;99642.63;;;11.07;79.56
11212;BME280;5663;50.864;12.096;2023-02-18T05:07:33;99646.16;;;11.06;79.62
11212;BME280;5663;50.864;12.096;2023-02-18T05:10:01;99639.25;;;11.05;79.62
11212;BME280;5663;50.864;12.096;2023-02-18T05:12:31;99642.78;;;11.04;79.85
11212;BME280;5663;50.864;12.096;2023-02-18T05:14:59;99634.50;;;10.96;79.79
11212;BME280;5663;50.864;12.096;2023-02-18T05:17:26;99638.63;;;11.00;79.94
11212;BME280;5663;50.864;12.096;2023-02-18T05:19:54;99622.41;;;10.95;80.16
11212;BME280;5663;50.864;12.096;2023-02-18T05:22:23;99621.63;;;10.93;80.30
11212;BME280;5663;50.864;12.096;2023-02-18T05:24:51;99623.56;;;10.89;80.08
11212;BME280;5663;50.864;12.096;2023-02-18T05:27:19;99612.47;;;10.85;80.20
11212;BME280;5663;50.864;12.096;2023-02-18T05:29:47;99620.25;;;10.85;80.38
11212;BME280;5663;50.864;12.096;2023-02-18T05:32:15;99561.34;;;10.48;80.14
11212;BME280;5663;50.864;12.096;2023-02-18T05:34:43;99619.47;;;10.83;80.19
11212;BME280;5663;50.864;12.096;2023-02-18T05:37:11;99609.06;;;10.83;80.27
11212;BME280;5663;50.864;12.096;2023-02-18T05:39:41;99600.50;;;10.81;80.08
11212;BME280;5663;50.864;12.096;2023-02-18T05:42:08;99600.50;;;10.81;80.11
11212;BME280;5663;50.864;12.096;2023-02-18T05:44:39;99591.91;;;10.79;79.88
11212;BME280;5663;50.864;12.096;2023-02-18T05:47:09;99586.72;;;10.79;79.84
11212;BME280;5663;50.864;12.096;2023-02-18T05:49:40;99580.75;;;10.77;79.67
11212;BME280;5663;50.864;12.096;2023-02-18T05:52:09;99570.41;;;10.76;79.61
11212;BME280;5663;50.864;12.096;2023-02-18T05:54:38;99559.31;;;10.72;79.56
11212;BME280;5663;50.864;12.096;2023-02-18T05:57:07;99568.03;;;10.71;79.49
11212;BME280;5663;50.864;12.096;2023-02-18T05:59:37;99564.50;;;10.72;79.38
11212;BME280;5663;50.864;12.096;2023-02-18T06:02:04;99555.97;;;10.70;79.23
11212;BME280;5663;50.864;12.096;2023-02-18T06:04:32;99550.75;;;10.70;79.40
11212;BME280;5663;50.864;12.096;2023-02-18T06:07:00;99563.81;;;10.69;79.71
11212;BME280;5663;50.864;12.096;2023-02-18T06:09:27;99551.69;;;10.69;79.64
11212;BME280;5663;50.864;12.096;2023-02-18T06:11:59;99542.16;;;10.68;79.76
11212;BME280;5663;50.864;12.096;2023-02-18T06:14:29;99504.69;;;10.55;79.98
11212;BME280;5663;50.864;12.096;2023-02-18T06:16:57;99526.56;;;10.68;80.13
11212;BME280;5663;50.864;12.096;2023-02-18T06:19:28;99523.06;;;10.69;80.39
11212;BME280;5663;50.864;12.096;2023-02-18T06:21:56;99522.19;;;10.69;80.54
11212;BME280;5663;50.864;12.096;2023-02-18T06:24:24;99516.16;;;10.68;80.73
11212;BME280;5663;50.864;12.096;2023-02-18T06:26:52;99514.03;;;10.76;80.84
11212;BME280;5663;50.864;12.096;2023-02-18T06:29:21;99521.78;;;10.78;80.70
11212;BME280;5663;50.864;12.096;2023-02-18T06:31:50;99519.91;;;10.80;80.77
11212;BME280;5663;50.864;12.096;2023-02-18T06:34:19;99532.88;;;10.81;80.76
11212;BME280;5663;50.864;12.096;2023-02-18T06:36:49;99531.03;;;10.83;80.63
11212;BME280;5663;50.864;12.096;2023-02-18T06:39:17;99526.59;;;10.85;80.46
11212;BME280;5663;50.864;12.096;2023-02-18T06:41:47;99493.38;;;10.73;80.38
11212;BME280;5663;50.864;12.096;2023-02-18T06:44:21;99527.06;;;10.94;80.33
11212;BME280;5663;50.864;12.096;2023-02-18T06:46:50;99520.94;;;10.95;80.38
11212;BME280;5663;50.864;12.096;2023-02-18T06:49:20;99514.66;;;10.99;80.45
11212;BME280;5663;50.864;12.096;2023-02-18T06:51:49;99513.66;;;11.01;80.39
11212;BME280;5663;50.864;12.096;2023-02-18T06:54:17;99506.50;;;11.05;80.34
11212;BME280;5663;50.864;12.096;2023-02-18T06:56:45;99502.09;;;11.07;80.32
11212;BME280;5663;50.864;12.096;2023-02-18T06:59:13;99479.75;;;11.03;80.32
11212;BME280;5663;50.864;12.096;2023-02-18T07:01:42;99457.53;;;10.96;79.92
11212;BME280;5663;50.864;12.096;2023-02-18T07:04:12;99491.19;;;11.16;79.90
11212;BME280;5663;50.864;12.096;2023-02-18T07:06:41;99494.44;;;11.21;79.71
11212;BME280;5663;50.864;12.096;2023-02-18T07:09:10;99501.22;;;11.24;79.47
11212;BME280;5663;50.864;12.096;2023-02-18T07:11:38;99501.16;;;11.25;79.54
11212;BME280;5663;50.864;12.096;2023-02-18T07:14:06;99502.69;;;11.29;79.27
11212;BME280;5663;50.864;12.096;2023-02-18T07:16:35;99491.25;;;11.32;79.22
11212;BME280;5663;50.864;12.096;2023-02-18T07:19:02;99492.72;;;11.38;78.84
11212;BME280;5663;50.864;12.096;2023-02-18T07:21:32;99488.25;;;11.40;78.75
11212;BME280;5663;50.864;12.096;2023-02-18T07:24:01;99483.72;;;11.43;78.88
11212;BME280;5663;50.864;12.096;2023-02-18T07:26:30;99390.03;;;10.93;78.57
11212;BME280;5663;50.864;12.096;2023-02-18T07:28:59;99468.78;;;11.47;78.44
11212;BME280;5663;50.864;12.096;2023-02-18T07:31:27;99469.53;;;11.49;78.53
11212;BME280;5663;50.864;12.096;2023-02-18T07:33:55;99475.34;;;11.54;78.61
11212;BME280;5663;50.864;12.096;2023-02-18T07:36:24;99471.50;;;11.61;78.19
11212;BME280;5663;50.864;12.096;2023-02-18T07:38:55;99473.91;;;11.64;78.25
11212;BME280;5663;50.864;12.096;2023-02-18T07:41:24;99469.31;;;11.69;77.91
11212;BME280;5663;50.864;12.096;2023-02-18T07:43:52;99465.69;;;11.72;77.99
11212;BME280;5663;50.864;12.096;2023-02-18T07:46:23;99456.88;;;11.74;77.92
11212;BME280;5663;50.864;12.096;2023-02-18T07:48:55;99441.09;;;11.77;77.77
11212;BME280;5663;50.864;12.096;2023-02-18T07:51:26;99450.88;;;11.90;77.84
11212;BME280;5663;50.864;12.096;2023-02-18T07:53:56;99443.63;;;11.95;77.73
11212;BME280;5663;50.864;12.096;2023-02-18T07:56:23;99452.13;;;11.98;77.53
11212;BME280;5663;50.864;12.096;2023-02-18T07:58:53;99439.66;;;12.03;77.38
11212;BME280;5663;50.864;12.096;2023-02-18T08:01:21;99449.84;;;12.08;77.53
11212;BME280;5663;50.864;12.096;2023-02-18T08:03:50;99448.00;;;12.10;77.56
11212;BME280;5663;50.864;12.096;2023-02-18T08:06:21;99453.94;;;12.12;77.13
11212;BME280;5663;50.864;12.096;2023-02-18T08:08:49;99434.28;;;12.06;77.06
11212;BME280;5663;50.864;12.096;2023-02-18T08:11:19;99445.63;;;12.21;76.98
11212;BME280;5663;50.864;12.096;2023-02-18T08:13:48;99441.94;;;12.25;77.45
11212;BME280;5663;50.864;12.096;2023-02-18T08:16:20;99444.16;;;12.31;77.36
11212;BME280;5663;50.864;12.096;2023-02-18T08:18:49;99440.38;;;12.37;77.15
11212;BME280;5663;50.864;12.096;2023-02-18T08:21:22;99437.50;;;12.42;77.14
11212;BME280;5663;50.864;12.096;2023-02-18T08:23:51;99426.91;;;12.45;76.94
11212;BME280;5663;50.864;12.096;2023-02-18T08:26:20;99427.53;;;12.48;76.49
11212;BME280;5663;50.864;12.096;2023-02-18T08:28:48;99434.94;;;12.56;76.40
11212;BME280;5663;50.864;12.096;2023-02-18T08:31:20;99410.88;;;12.51;76.33
11212;BME280;5663;50.864;12.096;2023-02-18T08:33:51;99427.50;;;12.64;76.16
11212;BME280;5663;50.864;12.096;2023-02-18T08:36:20;99417.66;;;12.69;76.16
11212;BME280;5663;50.864;12.096;2023-02-18T08:38:49;99421.94;;;12.70;76.03
11212;BME280;5663;50.864;12.096;2023-02-18T08:41:31;99413.00;;;12.74;75.96
11212;BME280;5663;50.864;12.096;2023-02-18T08:44:00;99405.00;;;12.77;75.77
11212;BME280;5663;50.864;12.096;2023-02-18T08:46:28;99404.06;;;12.78;75.94
11212;BME280;5663;50.864;12.096;2023-02-18T08:48:56;99408.06;;;12.84;75.79
11212;BME280;5663;50.864;12.096;2023-02-18T08:51:24;99394.94;;;12.86;75.75
11212;BME280;5663;50.864;12.096;2023-02-18T08:53:51;99394.75;;;12.89;75.63
11212;BME280;5663;50.864;12.096;2023-02-18T08:56:19;99396.25;;;12.93;75.21
11212;BME280;5663;50.864;12.096;2023-02-18T08:58:49;99390.81;;;12.96;75.19
11212;BME280;5663;50.864;12.096;2023-02-18T09:01:17;99392.53;;;12.97;75.33
11212;BME280;5663;50.864;12.096;2023-02-18T09:03:46;99357.91;;;12.79;75.06
11212;BME280;5663;50.864;12.096;2023-02-18T09:06:16;99392.13;;;13.03;74.96
11212;BME280;5663;50.864;12.096;2023-02-18T09:08:43;99395.69;;;13.02;75.02
11212;BME280;5663;50.864;12.096;2023-02-18T09:11:12;99392.97;;;13.03;74.82
11212;BME280;5663;50.864;12.096;2023-02-18T09:13:40;99385.06;;;13.05;74.57
11212;BME280;5663;50.864;12.096;2023-02-18T09:16:12;99317.28;;;12.75;74.60
11212;BME280;5663;50.864;12.096;2023-02-18T09:18:41;99360.44;;;13.09;74.51
11212;BME280;5663;50.864;12.096;2023-02-18T09:21:12;99347.09;;;13.14;74.28
11212;BME280;5663;50.864;12.096;2023-02-18T09:23:42;99323.69;;;13.12;74.51
11212;BME280;5663;50.864;12.096;2023-02-18T09:26:12;99322.94;;;13.24;74.55
11212;BME280;5663;50.864;12.096;2023-02-18T09:28:43;99307.44;;;13.21;74.20
11212;BME280;5663;50.864;12.096;2023-02-18T09:31:13;99337.66;;;13.40;74.10
11212;BME280;5663;50.864;12.096;2023-02-18T09:33:43;99344.34;;;13.44;74.00
11212;BME280;5663;50.864;12.096;2023-02-18T09:36:13;99341.25;;;13.51;73.96
11212;BME280;5663;50.864;12.096;2023-02-18T09:38:41;99341.91;;;13.55;73.66
11212;BME280;5663;50.864;12.096;2023-02-18T09:41:16;99339.00;;;13.60;73.70
11212;BME280;5663;50.864;12.096;2023-02-18T09:43:48;99336.09;;;13.64;73.59
11212;BME280;5663;50.864;12.096;2023-02-18T09:46:21;99342.59;;;13.71;73.87
11212;BME280;5663;50.864;12.096;2023-02-18T09:48:51;99348.28;;;13.78;73.08
11212;BME280;5663;50.864;12.096;2023-02-18T09:51:20;99341.81;;;13.84;73.10
11212;BME280;5663;50.864;12.096;2023-02-18T09:53:49;99346.13;;;13.85;72.80
11212;BME280;5663;50.864;12.096;2023-02-18T09:56:21;99339.94;;;13.86;72.56
11212;BME280;5663;50.864;12.096;2023-02-18T09:58:49;99337.22;;;13.87;72.49
11212;BME280;5663;50.864;12.096;2023-02-18T10:01:26;99346.84;;;13.87;72.26
11212;BME280;5663;50.864;12.096;2023-02-18T10:03:57;99311.06;;;13.74;72.01
11212;BME280;5663;50.864;12.096;2023-02-18T10:06:30;99336.19;;;13.90;72.29
11212;BME280;5663;50.864;12.096;2023-02-18T10:09:01;99327.41;;;13.91;72.26
11212;BME280;5663;50.864;12.096;2023-02-18T10:11:32;99327.41;;;13.91;72.06
11212;BME280;5663;50.864;12.096;2023-02-18T10:14:02;99325.75;;;13.90;71.97
11212;BME280;5663;50.864;12.096;2023-02-18T10:16:34;99320.72;;;13.87;71.63
11212;BME280;5663;50.864;12.096;2023-02-18T10:19:05;99311.91;;;13.88;71.66
11212;BME280;5663;50.864;12.096;2023-02-18T10:21:39;99316.31;;;13.87;71.54
11212;BME280;5663;50.864;12.096;2023-02-18T10:24:16;99288.66;;;13.70;71.47
11212;BME280;5663;50.864;12.096;2023-02-18T10:26:51;99313.63;;;13.89;71.36
11212;BME280;5663;50.864;12.096;2023-02-18T10:29:19;99306.69;;;13.88;71.38
11212;BME280;5663;50.864;12.096;2023-02-18T10:31:54;99318.84;;;13.89;71.16
11212;BME280;5663;50.864;12.096;2023-02-18T10:34:34;99304.06;;;13.88;70.92
11212;BME280;5663;50.864;12.096;2023-02-18T10:37:18;99299.97;;;13.84;70.78
11212;BME280;5663;50.864;12.096;2023-02-18T10:40:01;99303.75;;;13.79;70.67
11212;BME280;5663;50.864;12.096;2023-02-18T10:42:39;99299.34;;;13.80;70.48
11212;BME280;5663;50.864;12.096;2023-02-18T10:45:22;99287.84;;;13.70;70.90
11212;BME280;5663;50.864;12.096;2023-02-18T10:48:06;99286.28;;;13.80;70.46
11212;BME280;5663;50.864;12.096;2023-02-18T10:50:40;99277.59;;;13.79;70.31
11212;BME280;5663;50.864;12.096;2023-02-18T10:53:11;99281.28;;;13.77;70.39
11212;BME280;5663;50.864;12.096;2023-02-18T10:55:42;99274.56;;;13.73;69.94
11212;BME280;5663;50.864;12.096;2023-02-18T10:58:31;99275.59;;;13.70;69.91
11212;BME280;5663;50.864;12.096;2023-02-18T11:01:03;99272.22;;;13.68;70.00
11212;BME280;5663;50.864;12.096;2023-02-18T11:03:44;99270.41;;;13.56;69.91
11212;BME280;5663;50.864;12.096;2023-02-18T11:06:20;99269.84;;;13.65;70.05
11212;BME280;5663;50.864;12.096;2023-02-18T11:08:52;99281.03;;;13.67;70.16
11212;BME280;5663;50.864;12.096;2023-02-18T11:11:23;99269.84;;;13.65;69.84
11212;BME280;5663;50.864;12.096;2023-02-18T11:13:53;99285.72;;;13.62;69.48
11212;BME280;5663;50.864;12.096;2023-02-18T11:16:23;99279.84;;;13.59;69.31
11212;BME280;5663;50.864;12.096;2023-02-18T11:18:53;99270.41;;;13.56;69.35
11212;BME280;5663;50.864;12.096;2023-02-18T11:21:25;99257.34;;;13.56;69.13
11212;BME280;5663;50.864;12.096;2023-02-18T11:23:56;99264.47;;;13.54;69.19
11212;BME280;5663;50.864;12.096;2023-02-18T11:26:28;99205.69;;;13.20;68.95
11212;BME280;5663;50.864;12.096;2023-02-18T11:28:59;99261.84;;;13.54;68.74
11212;BME280;5663;50.864;12.096;2023-02-18T11:31:39;99270.63;;;13.53;68.58
11212;BME280;5663;50.864;12.096;2023-02-18T11:34:14;99269.16;;;13.49;68.41
11212;BME280;5663;50.864;12.096;2023-02-18T11:36:43;99268.59;;;13.44;68.48
11212;BME280;5663;50.864;12.096;2023-02-18T11:39:21;99264.31;;;13.43;68.28
11212;BME280;5663;50.864;12.096;2023-02-18T11:41:57;99256.13;;;13.35;68.38
11212;BME280;5663;50.864;12.096;2023-02-18T11:44:28;99257.44;;;13.42;68.33
11212;BME280;5663;50.864;12.096;2023-02-18T11:47:02;99222.03;;;13.23;67.85
11212;BME280;5663;50.864;12.096;2023-02-18T11:49:33;99256.59;;;13.41;67.72
11212;BME280;5663;50.864;12.096;2023-02-18T11:52:13;99246.16;;;13.41;67.64
11212;BME280;5663;50.864;12.096;2023-02-18T11:54:58;99243.84;;;13.37;67.31
11212;BME280;5663;50.864;12.096;2023-02-18T11:57:27;99247.34;;;13.36;67.41
11212;BME280;5663;50.864;12.096;2023-02-18T11:59:56;99236.34;;;13.45;67.34
11212;BME280;5663;50.864;12.096;2023-02-18T12:02:30;99229.66;;;13.53;67.38
11212;BME280;5663;50.864;12.096;2023-02-18T12:05:09;99219.63;;;13.60;66.98
11212;BME280;5663;50.864;12.096;2023-02-18T12:07:45;99214.66;;;13.70;67.10
11212;BME280;5663;50.864;12.096;2023-02-18T12:10:21;99209.63;;;13.79;66.87
11212;BME280;5663;50.864;12.096;2023-02-18T12:12:54;99203.81;;;13.89;66.59
11212;BME280;5663;50.864;12.096;2023-02-18T12:15:31;99201.28;;;14.00;65.72
11212;BME280;5663;50.864;12.096;2023-02-18T12:21:11;99208.41;;;14.23;65.08
11212;BME280;5663;50.864;12.096;2023-02-18T12:23:54;99208.81;;;14.43;64.96
11212;BME280;5663;50.864;12.096;2023-02-18T12:26:26;99216.78;;;14.54;64.75
11212;BME280;5663;50.864;12.096;2023-02-18T12:29:11;99225.16;;;14.59;63.93
11212;BME280;5663;50.864;12.096;2023-02-18T12:31:56;99217.50;;;14.56;63.44
11212;BME280;5663;50.864;12.096;2023-02-18T12:34:36;99217.00;;;14.51;63.06
11212;BME280;5663;50.864;12.096;2023-02-18T12:40:38;99225.34;;;14.43;62.85
11212;BME280;5663;50.864;12.096;2023-02-18T12:43:16;99211.56;;;14.41;62.89
11212;BME280;5663;50.864;12.096;2023-02-18T12:46:18;99222.72;;;14.43;62.39
11212;BME280;5663;50.864;12.096;2023-02-18T12:49:09;99209.66;;;14.43;62.56
11212;BME280;5663;50.864;12.096;2023-02-18T12:51:57;99200.47;;;14.38;61.77
11212;BME280;5663;50.864;12.096;2023-02-18T12:54:42;99210.28;;;14.34;61.94
11212;BME280;5663;50.864;12.096;2023-02-18T12:57:38;99198.78;;;14.24;61.88
11212;BME280;5663;50.864;12.096;2023-02-18T13:03:26;99195.44;;;14.22;62.74
11212;BME280;5663;50.864;12.096;2023-02-18T13:06:06;99194.41;;;14.24;62.16
11212;BME280;5663;50.864;12.096;2023-02-18T13:08:44;99202.34;;;14.23;62.20
11212;BME280;5663;50.864;12.096;2023-02-18T13:11:29;99217.63;;;14.29;62.10
11212;BME280;5663;50.864;12.096;2023-02-18T13:14:08;99216.38;;;14.35;61.67
11212;BME280;5663;50.864;12.096;2023-02-18T13:16:42;99221.81;;;14.32;61.47
11212;BME280;5663;50.864;12.096;2023-02-18T13:19:18;99215.34;;;14.24;61.16
11212;BME280;5663;50.864;12.096;2023-02-18T13:21:48;99218.25;;;14.20;61.19
11212;BME280;5663;50.864;12.096;2023-02-18T13:24:25;99208.09;;;14.15;61.56
11212;BME280;5663;50.864;12.096;2023-02-18T13:27:04;99217.09;;;14.11;61.40
11212;BME280;5663;50.864;12.096;2023-02-18T13:29:37;99227.25;;;14.03;61.34
11212;BME280;5663;50.864;12.096;2023-02-18T13:32:12;99206.19;;;13.92;61.51
11212;BME280;5663;50.864;12.096;2023-02-18T13:34:49;99204.84;;;13.73;61.65
11212;BME280;5663;50.864;12.096;2023-02-18T13:37:24;99227.03;;;13.80;62.11
11212;BME280;5663;50.864;12.096;2023-02-18T13:39:56;99214.34;;;13.74;62.04
11212;BME280;5663;50.864;12.096;2023-02-18T13:42:36;99210.06;;;13.73;62.00
11212;BME280;5663;50.864;12.096;2023-02-18T13:45:26;99199.59;;;13.73;62.29
11212;BME280;5663;50.864;12.096;2023-02-18T13:47:56;99212.47;;;13.76;62.32